sensor_id;sensor_type;location;lat;lon;timestamp;pressure;altitude;pressure_sealevel;temperature;humidity
50484;BME280;36409;52.168;20.878;2023-03-14T00:00:28;98855.34;;;8.47;68.51
50484;BME280;36409;52.168;20.878;2023-03-14T00:03:20;98861.52;;;8.43;68.82
50484;BME280;36409;52.168;20.878;2023-03-14T00:05:49;98854.66;;;8.40;68.73
50484;BME280;36409;52.168;20.878;2023-03-14T00:08:20;98851.25;;;8.38;68.72
50484;BME280;36409;52.168;20.878;2023-03-14T00:10:49;98855.64;;;8.36;68.98
50484;BME280;36409;52.168;20.878;2023-03-14T00:13:18;98836.55;;;8.37;69.34
50484;BME280;36409;52.168;20.878;2023-03-14T00:15:47;98837.41;;;8.38;69.02
50484;BME280;36409;52.168;20.878;2023-03-14T00:18:16;98849.55;;;8.37;68.72
50484;BME280;36409;52.168;20.878;2023-03-14T00:20:48;98838.31;;;8.37;68.91
50484;BME280;36409;52.168;20.878;2023-03-14T00:23:19;98846.14;;;8.35;69.26
50484;BME280;36409;52.168;20.878;2023-03-14T00:25:48;98832.36;;;8.33;68.50
50484;BME280;36409;52.168;20.878;2023-03-14T00:28:17;98833.33;;;8.29;69.01
50484;BME280;36409;52.168;20.878;2023-03-14T00:30:49;98836.88;;;8.26;68.98
50484;BME280;36409;52.168;20.878;2023-03-14T00:33:18;98830.05;;;8.22;68.73
50484;BME280;36409;52.168;20.878;2023-03-14T00:35:54;98827.45;;;8.22;68.49
50484;BME280;36409;52.168;20.878;2023-03-14T00:38:23;98818.82;;;8.22;68.53
50484;BME280;36409;52.168;20.878;2023-03-14T00:40:53;98813.64;;;8.20;69.30
50484;BME280;36409;52.168;20.878;2023-03-14T00:43:23;98806.80;;;8.17;68.92
50484;BME280;36409;52.168;20.878;2023-03-14T00:45:52;98794.75;;;8.15;68.97
50484;BME280;36409;52.168;20.878;2023-03-14T00:48:22;98794.83;;;8.12;68.50
50484;BME280;36409;52.168;20.878;2023-03-14T00:50:52;98788.82;;;8.10;68.85
50484;BME280;36409;52.168;20.878;2023-03-14T00:53:23;98782.00;;;8.06;68.41
50484;BME280;36409;52.168;20.878;2023-03-14T00:56:09;98787.34;;;8.01;69.14
50484;BME280;36409;52.168;20.878;2023-03-14T00:58:42;98790.05;;;7.98;69.25
50484;BME280;36409;52.168;20.878;2023-03-14T01:01:14;98777.12;;;7.95;68.71
50484;BME280;36409;52.168;20.878;2023-03-14T01:03:44;98771.12;;;7.93;68.74
50484;BME280;36409;52.168;20.878;2023-03-14T01:06:16;98771.20;;;7.89;68.86
50484;BME280;36409;52.168;20.878;2023-03-14T01:08:46;98779.11;;;7.86;68.81
50484;BME280;36409;52.168;20.878;2023-03-14T01:11:17;98767.92;;;7.83;69.35
50484;BME280;36409;52.168;20.878;2023-03-14T01:13:47;98775.84;;;7.78;68.91
50484;BME280;36409;52.168;20.878;2023-03-14T01:16:18;98771.66;;;7.74;68.74
50484;BME280;36409;52.168;20.878;2023-03-14T01:18:48;98770.03;;;7.70;68.69
50484;BME280;36409;52.168;20.878;2023-03-14T01:21:20;98754.62;;;7.64;68.54
50484;BME280;36409;52.168;20.878;2023-03-14T01:23:51;98764.28;;;7.58;68.57
50484;BME280;36409;52.168;20.878;2023-03-14T01:26:24;98770.44;;;7.54;68.77
50484;BME280;36409;52.168;20.878;2023-03-14T01:28:54;98777.52;;;7.49;68.82
50484;BME280;36409;52.168;20.878;2023-03-14T01:31:25;98773.34;;;7.44;68.75
50484;BME280;36409;52.168;20.878;2023-03-14T01:33:57;98770.92;;;7.37;68.81
50484;BME280;36409;52.168;20.878;2023-03-14T01:36:26;98765.82;;;7.33;68.50
50484;BME280;36409;52.168;20.878;2023-03-14T01:38:55;98769.43;;;7.27;68.76
50484;BME280;36409;52.168;20.878;2023-03-14T01:41:25;98767.84;;;7.21;68.51
50484;BME280;36409;52.168;20.878;2023-03-14T01:43:56;98763.64;;;7.17;68.67
50484;BME280;36409;52.168;20.878;2023-03-14T01:46:40;98778.45;;;7.14;68.75
50484;BME280;36409;52.168;20.878;2023-03-14T01:49:22;98757.81;;;7.09;69.12
50484;BME280;36409;52.168;20.878;2023-03-14T01:52:00;98765.66;;;7.06;68.95
50484;BME280;36409;52.168;20.878;2023-03-14T01:54:35;98757.90;;;7.04;69.00
50484;BME280;36409;52.168;20.878;2023-03-14T01:57:12;98754.47;;;7.04;69.20
50484;BME280;36409;52.168;20.878;2023-03-14T01:59:48;98751.92;;;7.02;68.86
50484;BME280;36409;52.168;20.878;2023-03-14T02:02:22;98749.34;;;7.01;69.17
50484;BME280;36409;52.168;20.878;2023-03-14T02:04:53;98737.36;;;6.97;68.80
50484;BME280;36409;52.168;20.878;2023-03-14T02:07:32;98752.13;;;6.93;69.35
50484;BME280;36409;52.168;20.878;2023-03-14T02:10:29;98736.68;;;6.88;68.99
50484;BME280;36409;52.168;20.878;2023-03-14T02:13:04;98736.73;;;6.87;68.83
50484;BME280;36409;52.168;20.878;2023-03-14T02:15:48;98742.03;;;6.82;68.76
50484;BME280;36409;52.168;20.878;2023-03-14T02:18:38;98734.31;;;6.80;68.98
50484;BME280;36409;52.168;20.878;2023-03-14T02:21:37;98732.62;;;6.78;68.90
50484;BME280;36409;52.168;20.878;2023-03-14T02:24:15;98730.13;;;6.75;68.95
50484;BME280;36409;52.168;20.878;2023-03-14T02:27:11;98719.83;;;6.70;69.12
50484;BME280;36409;52.168;20.878;2023-03-14T02:29:50;98712.17;;;6.65;68.41
50484;BME280;36409;52.168;20.878;2023-03-14T02:32:22;98696.73;;;6.61;68.80
50484;BME280;36409;52.168;20.878;2023-03-14T02:34:55;98694.23;;;6.58;69.15
50484;BME280;36409;52.168;20.878;2023-03-14T02:37:35;98688.25;;;6.54;68.88
50484;BME280;36409;52.168;20.878;2023-03-14T02:40:07;98683.16;;;6.51;68.78
50484;BME280;36409;52.168;20.878;2023-03-14T02:42:37;98684.94;;;6.49;68.82
50484;BME280;36409;52.168;20.878;2023-03-14T02:45:35;98680.70;;;6.45;69.28
50484;BME280;36409;52.168;20.878;2023-03-14T02:48:09;98687.70;;;6.41;69.18
50484;BME280;36409;52.168;20.878;2023-03-14T02:50:44;98688.64;;;6.39;68.91
50484;BME280;36409;52.168;20.878;2023-03-14T02:53:17;98687.87;;;6.35;69.18
50484;BME280;36409;52.168;20.878;2023-03-14T02:55:48;98686.16;;;6.34;69.10
50484;BME280;36409;52.168;20.878;2023-03-14T02:58:20;98684.45;;;6.33;69.13
50484;BME280;36409;52.168;20.878;2023-03-14T03:00:53;98680.99;;;6.32;69.17
50484;BME280;36409;52.168;20.878;2023-03-14T03:03:24;98687.05;;;6.33;69.25
50484;BME280;36409;52.168;20.878;2023-03-14T03:05:55;98677.61;;;6.30;69.19
50484;BME280;36409;52.168;20.878;2023-03-14T03:08:26;98690.56;;;6.30;69.06
50484;BME280;36409;52.168;20.878;2023-03-14T03:10:57;98692.29;;;6.30;69.58
50484;BME280;36409;52.168;20.878;2023-03-14T03:13:28;98697.52;;;6.28;69.25
50484;BME280;36409;52.168;20.878;2023-03-14T03:15:59;98687.17;;;6.27;69.04
50484;BME280;36409;52.168;20.878;2023-03-14T03:18:31;98678.61;;;6.25;69.29
50484;BME280;36409;52.168;20.878;2023-03-14T03:21:01;98679.51;;;6.22;69.05
50484;BME280;36409;52.168;20.878;2023-03-14T03:23:34;98677.80;;;6.21;69.35
50484;BME280;36409;52.168;20.878;2023-03-14T03:26:05;98679.55;;;6.21;69.16
50484;BME280;36409;52.168;20.878;2023-03-14T03:28:39;98675.26;;;6.20;69.55
50484;BME280;36409;52.168;20.878;2023-03-14T03:31:18;98676.14;;;6.18;69.28
50484;BME280;36409;52.168;20.878;2023-03-14T03:33:48;98683.08;;;6.18;69.42
50484;BME280;36409;52.168;20.878;2023-03-14T03:36:21;98675.32;;;6.16;69.43
50484;BME280;36409;52.168;20.878;2023-03-14T03:38:51;98663.23;;;6.17;69.71
50484;BME280;36409;52.168;20.878;2023-03-14T03:41:21;98658.05;;;6.17;69.26
50484;BME280;36409;52.168;20.878;2023-03-14T03:43:54;98656.34;;;6.16;69.32
50484;BME280;36409;52.168;20.878;2023-03-14T03:46:24;98657.19;;;6.16;69.42
50484;BME280;36409;52.168;20.878;2023-03-14T03:48:55;98651.98;;;6.18;69.39
50484;BME280;36409;52.168;20.878;2023-03-14T03:51:25;98641.58;;;6.20;68.87
50484;BME280;36409;52.168;20.878;2023-03-14T03:53:56;98653.64;;;6.21;69.38
50484;BME280;36409;52.168;20.878;2023-03-14T03:56:34;98654.48;;;6.21;69.38
50484;BME280;36409;52.168;20.878;2023-03-14T03:59:05;98657.08;;;6.21;69.07
50484;BME280;36409;52.168;20.878;2023-03-14T04:01:35;98664.01;;;6.21;69.45
50484;BME280;36409;52.168;20.878;2023-03-14T04:04:06;98661.47;;;6.19;69.29
50484;BME280;36409;52.168;20.878;2023-03-14T04:06:36;98669.23;;;6.19;69.20
50484;BME280;36409;52.168;20.878;2023-03-14T04:09:05;98677.91;;;6.16;69.26
50484;BME280;36409;52.168;20.878;2023-03-14T04:11:49;98676.20;;;6.15;69.20
50484;BME280;36409;52.168;20.878;2023-03-14T04:14:21;98684.07;;;6.12;69.27
50484;BME280;36409;52.168;20.878;2023-03-14T04:17:05;98675.53;;;6.07;69.12
50484;BME280;36409;52.168;20.878;2023-03-14T04:19:38;98677.34;;;6.03;69.14
50484;BME280;36409;52.168;20.878;2023-03-14T04:22:10;98656.69;;;6.00;68.98
50484;BME280;36409;52.168;20.878;2023-03-14T04:24:48;98659.31;;;5.97;69.06
50484;BME280;36409;52.168;20.878;2023-03-14T04:27:17;98666.28;;;5.95;69.19
50484;BME280;36409;52.168;20.878;2023-03-14T04:29:50;98670.70;;;5.90;69.30
50484;BME280;36409;52.168;20.878;2023-03-14T04:32:30;98662.11;;;5.88;68.94
50484;BME280;36409;52.168;20.878;2023-03-14T04:35:00;98672.56;;;5.85;69.17
50484;BME280;36409;52.168;20.878;2023-03-14T04:37:32;98668.27;;;5.84;69.21
50484;BME280;36409;52.168;20.878;2023-03-14T04:40:09;98665.67;;;5.84;69.31
50484;BME280;36409;52.168;20.878;2023-03-14T04:42:39;98658.78;;;5.83;69.31
50484;BME280;36409;52.168;20.878;2023-03-14T04:45:11;98638.08;;;5.83;69.21
50484;BME280;36409;52.168;20.878;2023-03-14T04:47:42;98633.73;;;5.83;69.22
50484;BME280;36409;52.168;20.878;2023-03-14T04:50:19;98627.63;;;5.86;69.15
50484;BME280;36409;52.168;20.878;2023-03-14T04:52:52;98618.09;;;5.88;69.68
50484;BME280;36409;52.168;20.878;2023-03-14T04:55:22;98617.98;;;5.93;69.16
50484;BME280;36409;52.168;20.878;2023-03-14T04:57:55;98616.98;;;5.98;69.19
50484;BME280;36409;52.168;20.878;2023-03-14T05:00:26;98611.77;;;6.01;69.45
50484;BME280;36409;52.168;20.878;2023-03-14T05:03:19;98615.13;;;6.07;69.37
50484;BME280;36409;52.168;20.878;2023-03-14T05:06:09;98602.89;;;6.12;69.27
50484;BME280;36409;52.168;20.878;2023-03-14T05:09:07;98600.17;;;6.18;69.34
50484;BME280;36409;52.168;20.878;2023-03-14T05:12:03;98587.05;;;6.24;69.29
50484;BME280;36409;52.168;20.878;2023-03-14T05:14:59;98573.14;;;6.28;69.26
50484;BME280;36409;52.168;20.878;2023-03-14T05:17:49;98582.52;;;6.32;69.20
50484;BME280;36409;52.168;20.878;2023-03-14T05:20:41;98590.99;;;6.39;69.11
50484;BME280;36409;52.168;20.878;2023-03-14T05:23:35;98607.31;;;6.43;69.22
50484;BME280;36409;52.168;20.878;2023-03-14T05:26:36;98597.74;;;6.46;68.85
50484;BME280;36409;52.168;20.878;2023-03-14T05:29:25;98580.31;;;6.52;69.00
50484;BME280;36409;52.168;20.878;2023-03-14T05:32:06;98572.46;;;6.55;68.60
50484;BME280;36409;52.168;20.878;2023-03-14T05:34:48;98568.09;;;6.57;68.79
50484;BME280;36409;52.168;20.878;2023-03-14T05:37:48;98567.20;;;6.58;68.60
50484;BME280;36409;52.168;20.878;2023-03-14T05:40:46;98566.27;;;6.60;68.95
50484;BME280;36409;52.168;20.878;2023-03-14T05:43:34;98553.30;;;6.60;68.57
50484;BME280;36409;52.168;20.878;2023-03-14T05:46:15;98546.34;;;6.62;68.33
50484;BME280;36409;52.168;20.878;2023-03-14T05:48:58;98549.69;;;6.66;68.34
50484;BME280;36409;52.168;20.878;2023-03-14T05:51:42;98549.49;;;6.74;68.50
50484;BME280;36409;52.168;20.878;2023-03-14T05:54:27;98549.98;;;6.87;68.79
50484;BME280;36409;52.168;20.878;2023-03-14T05:57:13;98527.92;;;7.03;68.57
50484;BME280;36409;52.168;20.878;2023-03-14T06:00:15;98527.42;;;7.20;68.61
50484;BME280;36409;52.168;20.878;2023-03-14T06:02:53;98531.30;;;7.35;68.14
50484;BME280;36409;52.168;20.878;2023-03-14T06:05:25;98523.03;;;7.51;68.31
50484;BME280;36409;52.168;20.878;2023-03-14T06:07:58;98510.32;;;7.70;67.99
50484;BME280;36409;52.168;20.878;2023-03-14T06:10:29;98521.87;;;7.88;68.14
50484;BME280;36409;52.168;20.878;2023-03-14T06:12:59;98511.26;;;7.94;68.18
50484;BME280;36409;52.168;20.878;2023-03-14T06:15:29;98506.06;;;7.94;68.21
50484;BME280;36409;52.168;20.878;2023-03-14T06:17:58;98507.67;;;7.98;67.65
50484;BME280;36409;52.168;20.878;2023-03-14T06:20:27;98504.92;;;8.03;68.26
50484;BME280;36409;52.168;20.878;2023-03-14T06:22:57;98517.81;;;8.06;68.12
50484;BME280;36409;52.168;20.878;2023-03-14T06:25:28;98515.89;;;8.11;67.72
50484;BME280;36409;52.168;20.878;2023-03-14T06:27:57;98513.75;;;8.24;67.68
50484;BME280;36409;52.168;20.878;2023-03-14T06:30:28;98508.06;;;8.38;67.73
50484;BME280;36409;52.168;20.878;2023-03-14T06:32:58;98511.23;;;8.46;67.39
50484;BME280;36409;52.168;20.878;2023-03-14T06:35:28;98510.20;;;8.52;67.25
50484;BME280;36409;52.168;20.878;2023-03-14T06:37:59;98505.88;;;8.53;66.96
50484;BME280;36409;52.168;20.878;2023-03-14T06:40:30;98502.38;;;8.54;67.46
50484;BME280;36409;52.168;20.878;2023-03-14T06:43:20;98504.84;;;8.57;66.71
50484;BME280;36409;52.168;20.878;2023-03-14T06:45:51;98500.10;;;8.68;67.01
50484;BME280;36409;52.168;20.878;2023-03-14T06:48:20;98502.68;;;8.93;66.83
50484;BME280;36409;52.168;20.878;2023-03-14T06:50:53;98508.67;;;9.41;67.01
50484;BME280;36409;52.168;20.878;2023-03-14T06:53:23;98504.02;;;10.56;65.95
50484;BME280;36409;52.168;20.878;2023-03-14T06:55:52;98497.41;;;11.81;64.78
50484;BME280;36409;52.168;20.878;2023-03-14T06:58:21;98490.72;;;11.76;65.57
50484;BME280;36409;52.168;20.878;2023-03-14T07:00:53;98483.90;;;12.08;64.87
50484;BME280;36409;52.168;20.878;2023-03-14T07:03:26;98481.23;;;11.73;65.10
50484;BME280;36409;52.168;20.878;2023-03-14T07:05:56;98487.50;;;11.51;65.06
50484;BME280;36409;52.168;20.878;2023-03-14T07:08:25;98505.67;;;11.35;65.53
50484;BME280;36409;52.168;20.878;2023-03-14T07:10:57;98503.06;;;11.16;64.66
50484;BME280;36409;52.168;20.878;2023-03-14T07:13:27;98509.63;;;11.06;65.32
50484;BME280;36409;52.168;20.878;2023-03-14T07:16:09;98513.31;;;11.02;64.86
50484;BME280;36409;52.168;20.878;2023-03-14T07:18:39;98517.46;;;11.06;64.41
50484;BME280;36409;52.168;20.878;2023-03-14T07:21:08;98509.63;;;11.44;64.60
50484;BME280;36409;52.168;20.878;2023-03-14T07:23:39;98511.40;;;12.50;63.22
50484;BME280;36409;52.168;20.878;2023-03-14T07:26:10;98511.02;;;13.88;62.90
50484;BME280;36409;52.168;20.878;2023-03-14T07:28:45;98510.36;;;15.03;62.16
50484;BME280;36409;52.168;20.878;2023-03-14T07:31:16;98507.41;;;15.37;62.00
50484;BME280;36409;52.168;20.878;2023-03-14T07:33:45;98503.86;;;15.65;61.23
50484;BME280;36409;52.168;20.878;2023-03-14T07:36:15;98519.91;;;16.02;61.04
50484;BME280;36409;52.168;20.878;2023-03-14T07:38:46;98515.45;;;15.90;60.54
50484;BME280;36409;52.168;20.878;2023-03-14T07:41:15;98530.16;;;16.33;60.12
50484;BME280;36409;52.168;20.878;2023-03-14T07:44:11;98502.90;;;16.86;59.50
50484;BME280;36409;52.168;20.878;2023-03-14T07:46:43;98511.00;;;17.45;59.11
50484;BME280;36409;52.168;20.878;2023-03-14T07:49:22;98503.16;;;18.05;57.73
50484;BME280;36409;52.168;20.878;2023-03-14T07:56:37;98505.91;;;19.53;56.72
50484;BME280;36409;52.168;20.878;2023-03-14T08:08:26;98505.68;;;20.43;54.99
50484;BME280;36409;52.168;20.878;2023-03-14T08:27:42;98516.59;;;16.39;56.68
50484;BME280;36409;52.168;20.878;2023-03-14T08:41:42;98525.89;;;16.71;55.87
50484;BME280;36409;52.168;20.878;2023-03-14T08:49:29;98510.77;;;16.21;55.71
50484;BME280;36409;52.168;20.878;2023-03-14T08:52:53;98526.88;;;16.16;56.24
50484;BME280;36409;52.168;20.878;2023-03-14T08:56:14;98522.48;;;16.43;56.19
50484;BME280;36409;52.168;20.878;2023-03-14T08:58:56;98509.33;;;16.43;56.18
50484;BME280;36409;52.168;20.878;2023-03-14T09:01:25;98517.65;;;16.49;56.02
50484;BME280;36409;52.168;20.878;2023-03-14T09:03:54;98514.19;;;16.62;55.85
50484;BME280;36409;52.168;20.878;2023-03-14T09:06:25;98514.08;;;16.50;55.93
50484;BME280;36409;52.168;20.878;2023-03-14T09:08:54;98506.89;;;16.40;55.47
50484;BME280;36409;52.168;20.878;2023-03-14T09:11:24;98513.29;;;16.23;55.32
50484;BME280;36409;52.168;20.878;2023-03-14T09:13:54;98503.45;;;15.99;55.39
50484;BME280;36409;52.168;20.878;2023-03-14T09:16:26;98499.75;;;15.88;55.83
50484;BME280;36409;52.168;20.878;2023-03-14T09:18:56;98488.11;;;15.78;55.41
50484;BME280;36409;52.168;20.878;2023-03-14T09:21:27;98491.98;;;15.72;55.33
50484;BME280;36409;52.168;20.878;2023-03-14T09:23:59;98486.42;;;15.77;55.12
50484;BME280;36409;52.168;20.878;2023-03-14T09:26:28;98481.08;;;15.79;55.74
50484;BME280;36409;52.168;20.878;2023-03-14T09:28:59;98487.17;;;15.79;55.55
50484;BME280;36409;52.168;20.878;2023-03-14T09:31:28;98477.28;;;15.83;55.31
50484;BME280;36409;52.168;20.878;2023-03-14T09:33:58;98473.36;;;15.90;55.55
50484;BME280;36409;52.168;20.878;2023-03-14T09:36:27;98474.11;;;15.92;54.83
50484;BME280;36409;52.168;20.878;2023-03-14T09:38:56;98473.00;;;15.82;54.94
50484;BME280;36409;52.168;20.878;2023-03-14T09:41:27;98466.98;;;15.80;54.99
50484;BME280;36409;52.168;20.878;2023-03-14T09:44:05;98462.86;;;15.75;54.92
50484;BME280;36409;52.168;20.878;2023-03-14T09:46:36;98466.77;;;15.83;54.93
50484;BME280;36409;52.168;20.878;2023-03-14T09:49:14;98448.43;;;15.96;54.92
50484;BME280;36409;52.168;20.878;2023-03-14T09:51:51;98442.86;;;16.13;54.63
50484;BME280;36409;52.168;20.878;2023-03-14T09:54:43;98436.77;;;16.51;54.33
50484;BME280;36409;52.168;20.878;2023-03-14T09:57:15;98431.23;;;16.93;53.93
50484;BME280;36409;52.168;20.878;2023-03-14T09:59:47;98422.76;;;17.14;54.10
50484;BME280;36409;52.168;20.878;2023-03-14T10:02:19;98419.60;;;17.09;53.83
50484;BME280;36409;52.168;20.878;2023-03-14T10:04:50;98424.20;;;17.18;53.93
50484;BME280;36409;52.168;20.878;2023-03-14T10:07:25;98440.68;;;17.09;52.99
50484;BME280;36409;52.168;20.878;2023-03-14T10:09:56;98443.05;;;16.88;53.38
50484;BME280;36409;52.168;20.878;2023-03-14T10:12:32;98435.59;;;16.56;53.17
50484;BME280;36409;52.168;20.878;2023-03-14T10:15:10;98444.97;;;16.34;53.47
50484;BME280;36409;52.168;20.878;2023-03-14T10:17:43;98442.55;;;16.18;53.13
50484;BME280;36409;52.168;20.878;2023-03-14T10:20:36;98430.45;;;16.15;53.22
50484;BME280;36409;52.168;20.878;2023-03-14T10:23:19;98427.70;;;16.04;53.45
50484;BME280;36409;52.168;20.878;2023-03-14T10:26:12;98434.41;;;15.95;53.71
50484;BME280;36409;52.168;20.878;2023-03-14T10:28:45;98437.78;;;15.84;53.55
50484;BME280;36409;52.168;20.878;2023-03-14T10:31:18;98429.11;;;15.82;53.66
50484;BME280;36409;52.168;20.878;2023-03-14T10:33:59;98430.72;;;15.85;53.85
50484;BME280;36409;52.168;20.878;2023-03-14T10:36:30;98421.69;;;16.02;53.90
50484;BME280;36409;52.168;20.878;2023-03-14T10:39:22;98419.48;;;16.21;53.80
50484;BME280;36409;52.168;20.878;2023-03-14T10:41:55;98411.41;;;16.38;53.53
50484;BME280;36409;52.168;20.878;2023-03-14T10:44:35;98416.65;;;16.50;53.39
50484;BME280;36409;52.168;20.878;2023-03-14T10:47:12;98411.80;;;16.57;53.46
50484;BME280;36409;52.168;20.878;2023-03-14T10:49:44;98413.58;;;16.70;53.06
50484;BME280;36409;52.168;20.878;2023-03-14T10:52:20;98414.19;;;16.73;53.29
50484;BME280;36409;52.168;20.878;2023-03-14T10:55:09;98414.81;;;16.77;53.30
50484;BME280;36409;52.168;20.878;2023-03-14T10:57:40;98413.98;;;16.63;52.75
50484;BME280;36409;52.168;20.878;2023-03-14T11:00:16;98412.77;;;16.43;52.83
50484;BME280;36409;52.168;20.878;2023-03-14T11:03:06;98407.38;;;16.45;52.98
50484;BME280;36409;52.168;20.878;2023-03-14T11:05:43;98412.21;;;16.51;53.06
50484;BME280;36409;52.168;20.878;2023-03-14T11:08:20;98417.17;;;16.43;52.88
50484;BME280;36409;52.168;20.878;2023-03-14T11:10:55;98420.03;;;16.27;52.48
50484;BME280;36409;52.168;20.878;2023-03-14T11:13:30;98420.23;;;16.11;52.88
50484;BME280;36409;52.168;20.878;2023-03-14T11:16:20;98422.20;;;15.94;52.79
50484;BME280;36409;52.168;20.878;2023-03-14T11:22:08;98442.48;;;15.52;52.80
50484;BME280;36409;52.168;20.878;2023-03-14T11:24:55;98450.72;;;15.33;53.09
50484;BME280;36409;52.168;20.878;2023-03-14T11:27:39;98442.52;;;15.10;53.05
50484;BME280;36409;52.168;20.878;2023-03-14T11:30:18;98431.31;;;14.93;53.04
50484;BME280;36409;52.168;20.878;2023-03-14T11:32:57;98418.76;;;14.84;53.31
50484;BME280;36409;52.168;20.878;2023-03-14T11:35:36;98424.38;;;14.78;53.74
50484;BME280;36409;52.168;20.878;2023-03-14T11:38:14;98428.16;;;14.74;54.00
50484;BME280;36409;52.168;20.878;2023-03-14T11:40:46;98421.75;;;14.78;53.65
50484;BME280;36409;52.168;20.878;2023-03-14T11:43:24;98419.30;;;14.89;53.60
50484;BME280;36409;52.168;20.878;2023-03-14T11:46:09;98417.75;;;15.14;54.34
50484;BME280;36409;52.168;20.878;2023-03-14T11:48:43;98422.55;;;15.35;53.81
50484;BME280;36409;52.168;20.878;2023-03-14T11:51:20;98427.46;;;15.54;53.73
50484;BME280;36409;52.168;20.878;2023-03-14T11:53:58;98421.70;;;15.62;54.13
50484;BME280;36409;52.168;20.878;2023-03-14T11:56:35;98427.71;;;15.64;54.16
50484;BME280;36409;52.168;20.878;2023-03-14T11:59:12;98422.03;;;15.70;53.79
50484;BME280;36409;52.168;20.878;2023-03-14T12:01:54;98438.36;;;15.75;53.49
50484;BME280;36409;52.168;20.878;2023-03-14T12:04:46;98438.56;;;15.72;53.38
50484;BME280;36409;52.168;20.878;2023-03-14T12:07:23;98410.38;;;15.74;53.55
50484;BME280;36409;52.168;20.878;2023-03-14T12:09:55;98406.02;;;15.87;53.38
50484;BME280;36409;52.168;20.878;2023-03-14T12:12:26;98419.05;;;15.89;53.54
50484;BME280;36409;52.168;20.878;2023-03-14T12:15:04;98423.02;;;15.82;53.24
50484;BME280;36409;52.168;20.878;2023-03-14T12:17:37;98427.30;;;15.70;53.36
50484;BME280;36409;52.168;20.878;2023-03-14T12:20:18;98430.20;;;15.52;53.67
50484;BME280;36409;52.168;20.878;2023-03-14T12:22:54;98436.75;;;15.32;53.43
50484;BME280;36409;52.168;20.878;2023-03-14T12:25:28;98429.95;;;15.15;53.58
50484;BME280;36409;52.168;20.878;2023-03-14T12:30:54;98440.70;;;14.83;53.48
50484;BME280;36409;52.168;20.878;2023-03-14T12:33:31;98448.84;;;14.64;53.64
50484;BME280;36409;52.168;20.878;2023-03-14T12:36:12;98438.79;;;14.42;53.66
50484;BME280;36409;52.168;20.878;2023-03-14T12:38:58;98436.46;;;14.23;53.86
50484;BME280;36409;52.168;20.878;2023-03-14T12:41:40;98445.89;;;14.11;53.99
50484;BME280;36409;52.168;20.878;2023-03-14T12:44:42;98454.48;;;13.98;53.76
50484;BME280;36409;52.168;20.878;2023-03-14T12:47:43;98456.98;;;13.85;54.04
50484;BME280;36409;52.168;20.878;2023-03-14T12:50:24;98452.55;;;13.71;54.87
50484;BME280;36409;52.168;20.878;2023-03-14T13:01:55;98462.30;;;13.05;55.01
50484;BME280;36409;52.168;20.878;2023-03-14T13:04:33;98464.97;;;12.88;55.98
50484;BME280;36409;52.168;20.878;2023-03-14T13:07:28;98471.78;;;12.74;55.24
50484;BME280;36409;52.168;20.878;2023-03-14T13:10:02;98462.73;;;12.64;55.39
50484;BME280;36409;52.168;20.878;2023-03-14T13:12:38;98466.77;;;12.54;55.90
50484;BME280;36409;52.168;20.878;2023-03-14T13:15:18;98479.56;;;12.42;56.19
50484;BME280;36409;52.168;20.878;2023-03-14T13:17:51;98464.50;;;12.30;56.60
50484;BME280;36409;52.168;20.878;2023-03-14T13:20:24;98464.14;;;12.20;57.03
50484;BME280;36409;52.168;20.878;2023-03-14T13:22:55;98471.83;;;12.05;56.84
50484;BME280;36409;52.168;20.878;2023-03-14T13:25:30;98484.48;;;11.96;56.99
50484;BME280;36409;52.168;20.878;2023-03-14T13:28:08;98474.57;;;11.85;57.69
50484;BME280;36409;52.168;20.878;2023-03-14T13:30:43;98475.78;;;11.78;57.11
50484;BME280;36409;52.168;20.878;2023-03-14T13:33:22;98476.92;;;11.72;57.20
50484;BME280;36409;52.168;20.878;2023-03-14T13:36:08;98479.84;;;11.66;57.98
50484;BME280;36409;52.168;20.878;2023-03-14T13:38:59;98478.52;;;11.57;58.19
50484;BME280;36409;52.168;20.878;2023-03-14T13:41:40;98482.36;;;11.50;58.85
50484;BME280;36409;52.168;20.878;2023-03-14T13:44:29;98481.67;;;11.46;58.79
50484;BME280;36409;52.168;20.878;2023-03-14T13:47:17;98476.72;;;11.40;59.70
50484;BME280;36409;52.168;20.878;2023-03-14T13:49:59;98473.33;;;11.38;59.39
50484;BME280;36409;52.168;20.878;2023-03-14T13:52:38;98473.50;;;11.35;59.65
50484;BME280;36409;52.168;20.878;2023-03-14T13:55:17;98471.80;;;11.34;59.52
50484;BME280;36409;52.168;20.878;2023-03-14T13:58:11;98466.71;;;11.31;59.38
50484;BME280;36409;52.168;20.878;2023-03-14T14:00:59;98469.63;;;11.24;60.29
50484;BME280;36409;52.168;20.878;2023-03-14T14:03:44;98462.98;;;11.17;60.17
50484;BME280;36409;52.168;20.878;2023-03-14T14:06:31;98464.11;;;11.11;60.87
50484;BME280;36409;52.168;20.878;2023-03-14T14:09:09;98460.02;;;11.06;60.08
50484;BME280;36409;52.168;20.878;2023-03-14T14:12:03;98463.77;;;11.00;60.49
50484;BME280;36409;52.168;20.878;2023-03-14T14:14:58;98467.45;;;10.96;60.82
50484;BME280;36409;52.168;20.878;2023-03-14T14:20:33;98454.88;;;10.85;60.94
50484;BME280;36409;52.168;20.878;2023-03-14T14:23:10;98456.88;;;10.80;61.57
50484;BME280;36409;52.168;20.878;2023-03-14T14:25:45;98449.17;;;10.77;62.31
50484;BME280;36409;52.168;20.878;2023-03-14T14:28:27;98446.56;;;10.77;61.81
50484;BME280;36409;52.168;20.878;2023-03-14T14:31:19;98445.86;;;10.73;61.52
50484;BME280;36409;52.168;20.878;2023-03-14T14:33:58;98436.55;;;10.68;62.88
50484;BME280;36409;52.168;20.878;2023-03-14T14:36:43;98440.13;;;10.65;62.85
50484;BME280;36409;52.168;20.878;2023-03-14T14:39:23;98432.45;;;10.62;62.10
50484;BME280;36409;52.168;20.878;2023-03-14T14:41:57;98441.11;;;10.62;62.42
50484;BME280;36409;52.168;20.878;2023-03-14T14:44:33;98436.81;;;10.61;63.26
50484;BME280;36409;52.168;20.878;2023-03-14T14:47:16;98443.93;;;10.58;62.52
50484;BME280;36409;52.168;20.878;2023-03-14T14:49:50;98446.63;;;10.56;63.52